createdAt,value
2023-04-02T00:01:02.373Z,100322.59
2023-04-02T00:03:42.277Z,100323.70
2023-04-02T00:06:40.424Z,100328.45
2023-04-02T00:09:15.912Z,100333.98
2023-04-02T00:11:50.212Z,100335.98
2023-04-02T00:14:27.093Z,100337.66
2023-04-02T00:16:57.836Z,100340.17
2023-04-02T00:19:36.969Z,100338.00
2023-04-02T00:22:09.664Z,100337.98
2023-04-02T00:24:39.598Z,100340.46
2023-04-02T00:27:13.738Z,100346.59
2023-04-02T00:29:50.743Z,100349.34
2023-04-02T00:32:27.566Z,100351.67
2023-04-02T00:34:57.757Z,100352.48
2023-04-02T00:37:39.490Z,100348.33
2023-04-02T00:40:28.014Z,100353.14
2023-04-02T00:43:00.316Z,100348.91
2023-04-02T00:45:33.536Z,100351.00
2023-04-02T00:48:39.489Z,100349.00
2023-04-02T00:51:14.919Z,100352.50
2023-04-02T00:53:47.593Z,100353.44
2023-04-02T00:56:33.404Z,100356.84
2023-04-02T00:59:03.145Z,100359.54
2023-04-02T01:01:37.855Z,100363.59
2023-04-02T01:04:27.645Z,100368.63
2023-04-02T01:06:58.566Z,100371.69
2023-04-02T01:09:59.403Z,100369.29
2023-04-02T01:12:34.887Z,100370.30
2023-04-02T01:15:25.324Z,100372.20
2023-04-02T01:18:36.977Z,100376.91
2023-04-02T01:21:37.144Z,100381.95
2023-04-02T01:24:09.302Z,100384.88
2023-04-02T01:27:01.494Z,100389.58
2023-04-02T01:29:34.345Z,100389.06
2023-04-02T01:32:07.722Z,100394.11
2023-04-02T01:34:36.765Z,100394.55
2023-04-02T01:37:14.958Z,100398.48
2023-04-02T01:39:49.794Z,100404.62
2023-04-02T01:42:25.657Z,100408.02
2023-04-02T01:45:08.043Z,100411.16
2023-04-02T01:47:38.363Z,100414.06
2023-04-02T01:50:19.295Z,100415.29
2023-04-02T01:52:54.754Z,100421.31
2023-04-02T01:55:55.047Z,100423.27
2023-04-02T01:58:27.761Z,100424.75
2023-04-02T02:01:08.516Z,100431.52
2023-04-02T02:03:39.441Z,100431.67
2023-04-02T02:06:14.991Z,100429.27
2023-04-02T02:08:54.908Z,100438.20
2023-04-02T02:11:28.428Z,100438.06
2023-04-02T02:14:02.588Z,100438.31
2023-04-02T02:16:32.102Z,100442.94
2023-04-02T02:19:04.550Z,100446.02
2023-04-02T02:21:36.522Z,100450.84
2023-04-02T02:24:12.642Z,100453.77
2023-04-02T02:26:43.726Z,100460.95
2023-04-02T02:29:18.714Z,100463.09
2023-04-02T02:31:53.113Z,100466.77
2023-04-02T02:34:29.850Z,100471.70
2023-04-02T02:37:13.995Z,100466.71
2023-04-02T02:39:46.199Z,100469.88
2023-04-02T02:42:39.900Z,100475.42
2023-04-02T02:45:21.613Z,100479.37
2023-04-02T02:47:53.784Z,100481.92
2023-04-02T02:50:26.617Z,100487.36
2023-04-02T02:52:58.923Z,100484.69
2023-04-02T02:55:34.915Z,100489.63
2023-04-02T02:58:14.544Z,100492.34
2023-04-02T03:00:44.125Z,100497.80
2023-04-02T03:03:19.602Z,100501.79
2023-04-02T03:06:10.339Z,100502.77
2023-04-02T03:08:44.898Z,100505.15
2023-04-02T03:11:29.159Z,100511.25
2023-04-02T03:14:10.400Z,100513.89
2023-04-02T03:16:46.986Z,100516.70
2023-04-02T03:19:24.838Z,100518.96
2023-04-02T03:22:08.835Z,100523.89
2023-04-02T03:24:49.773Z,100528.79
2023-04-02T03:27:22.765Z,100530.52
2023-04-02T03:30:05.820Z,100536.75
2023-04-02T03:32:39.646Z,100538.31
2023-04-02T03:35:28.366Z,100542.30
2023-04-02T03:38:12.714Z,100542.92
2023-04-02T03:41:04.960Z,100546.90
2023-04-02T03:43:43.587Z,100552.44
2023-04-02T03:46:24.930Z,100557.52
2023-04-02T03:49:26.786Z,100562.56
2023-04-02T03:51:55.973Z,100569.25
2023-04-02T03:54:25.069Z,100574.42
2023-04-02T03:56:54.576Z,100582.70
2023-04-02T03:59:47.526Z,100590.71
2023-04-02T04:02:25.230Z,100594.39
2023-04-02T04:04:57.083Z,100597.52
2023-04-02T04:07:35.633Z,100598.61
2023-04-02T04:10:07.898Z,100607.30
2023-04-02T04:12:42.502Z,100610.47
2023-04-02T04:15:21.535Z,100613.20
2023-04-02T04:17:54.096Z,100616.67
2023-04-02T04:20:46.240Z,100625.02
2023-04-02T04:23:25.987Z,100631.89
2023-04-02T04:25:59.183Z,100634.70
2023-04-02T04:28:42.725Z,100642.65
2023-04-02T04:31:25.333Z,100646.02
2023-04-02T04:34:04.954Z,100649.21
2023-04-02T04:36:53.908Z,100645.59
2023-04-02T04:39:36.128Z,100651.77
2023-04-02T04:42:07.439Z,100655.17
2023-04-02T04:44:36.651Z,100658.02
2023-04-02T04:47:15.615Z,100663.16
2023-04-02T04:49:47.577Z,100665.52
2023-04-02T04:52:24.376Z,100665.28
2023-04-02T04:54:53.437Z,100669.42
2023-04-02T04:57:38.104Z,100674.76
2023-04-02T05:00:26.362Z,100679.23
2023-04-02T05:03:13.902Z,100690.20
2023-04-02T05:05:42.839Z,100695.33
2023-04-02T05:08:22.423Z,100695.83
2023-04-02T05:11:06.112Z,100701.83
2023-04-02T05:13:42.746Z,100701.33
2023-04-02T05:16:22.784Z,100705.65
2023-04-02T05:19:14.220Z,100715.22
2023-04-02T05:21:57.451Z,100717.04
2023-04-02T05:24:57.090Z,100719.55
2023-04-02T05:27:38.955Z,100722.81
2023-04-02T05:30:23.159Z,100723.55
2023-04-02T05:33:08.062Z,100730.88
2023-04-02T05:35:44.578Z,100736.01
2023-04-02T05:38:26.926Z,100741.93
2023-04-02T05:41:03.065Z,100739.68
2023-04-02T05:43:34.940Z,100739.30
2023-04-02T05:46:14.488Z,100740.03
2023-04-02T05:48:47.260Z,100747.11
2023-04-02T05:51:23.113Z,100751.81
2023-04-02T05:54:05.187Z,100755.56
2023-04-02T05:56:48.957Z,100758.58
2023-04-02T05:59:27.126Z,100767.14
2023-04-02T06:02:05.269Z,100768.43
2023-04-02T06:04:55.732Z,100774.90
2023-04-02T06:07:46.609Z,100778.91
2023-04-02T06:10:28.841Z,100783.80
2023-04-02T06:13:06.508Z,100790.11
2023-04-02T06:15:37.312Z,100790.36
2023-04-02T06:18:28.400Z,100792.73
2023-04-02T06:20:57.548Z,100800.00
2023-04-02T06:23:54.170Z,100804.36
2023-04-02T06:26:33.213Z,100810.77
2023-04-02T06:29:39.784Z,100806.49
2023-04-02T06:32:11.275Z,100814.84
2023-04-02T06:34:42.574Z,100822.00
2023-04-02T06:37:32.147Z,100822.66
2023-04-02T06:40:02.883Z,100834.11
2023-04-02T06:42:36.600Z,100838.52
2023-04-02T06:45:06.531Z,100843.05
2023-04-02T06:47:42.515Z,100846.70
2023-04-02T06:50:16.978Z,100851.70
2023-04-02T06:52:53.758Z,100855.23
2023-04-02T06:55:32.050Z,100856.41
2023-04-02T06:58:00.963Z,100861.64
2023-04-02T07:00:42.641Z,100863.52
2023-04-02T07:03:15.968Z,100862.80
2023-04-02T07:05:45.348Z,100868.56
2023-04-02T07:08:14.301Z,100870.36
2023-04-02T07:10:43.329Z,100877.54
2023-04-02T07:13:30.545Z,100877.70
2023-04-02T07:15:59.449Z,100879.23
2023-04-02T07:18:32.733Z,100885.52
2023-04-02T07:21:02.067Z,100890.65
2023-04-02T07:23:31.026Z,100889.64
2023-04-02T07:26:00.216Z,100891.80
2023-04-02T07:28:29.808Z,100893.05
2023-04-02T07:30:59.064Z,100896.77
2023-04-02T07:33:30.584Z,100904.32
2023-04-02T07:35:59.575Z,100906.85
2023-04-02T07:38:28.562Z,100906.49
2023-04-02T07:40:57.450Z,100908.52
2023-04-02T07:43:26.450Z,100914.48
2023-04-02T07:45:55.354Z,100915.59
2023-04-02T07:48:24.230Z,100920.72
2023-04-02T07:50:53.220Z,100922.06
2023-04-02T07:53:34.432Z,100930.89
2023-04-02T07:56:05.163Z,100936.38
2023-04-02T07:58:34.373Z,100944.72
2023-04-02T08:01:04.495Z,100949.65
2023-04-02T08:03:33.516Z,100950.27
2023-04-02T08:06:02.559Z,100957.38
2023-04-02T08:08:31.471Z,100957.98
2023-04-02T08:11:00.617Z,100961.38
2023-04-02T08:13:29.553Z,100968.17
2023-04-02T08:15:59.860Z,100969.13
2023-04-02T08:18:30.106Z,100970.43
2023-04-02T08:20:59.971Z,100971.50
2023-04-02T08:23:29.160Z,100973.56
2023-04-02T08:25:58.851Z,100973.79
2023-04-02T08:28:28.004Z,100979.52
2023-04-02T08:30:57.125Z,100987.04
2023-04-02T08:33:26.341Z,100988.54
2023-04-02T08:35:55.379Z,100989.14
2023-04-02T08:38:25.610Z,100994.63
2023-04-02T08:40:59.905Z,100995.05
2023-04-02T08:43:42.047Z,100995.20
2023-04-02T08:46:29.980Z,101002.27
2023-04-02T08:49:03.777Z,101001.80
2023-04-02T08:51:35.704Z,101007.17
2023-04-02T08:54:29.510Z,101008.58
2023-04-02T08:57:13.481Z,101016.12
2023-04-02T08:59:44.581Z,101014.34
2023-04-02T09:02:36.078Z,101011.54
2023-04-02T09:05:08.476Z,101011.80
2023-04-02T09:07:37.435Z,101018.64
2023-04-02T09:10:07.347Z,101017.75
2023-04-02T09:12:36.416Z,101020.61
2023-04-02T09:15:14.313Z,101026.31
2023-04-02T09:17:53.705Z,101030.61
2023-04-02T09:20:26.713Z,101034.90
2023-04-02T09:22:56.999Z,101037.77
2023-04-02T09:25:32.201Z,101040.21
2023-04-02T09:28:03.164Z,101044.62
2023-04-02T09:30:32.177Z,101049.02
2023-04-02T09:33:07.693Z,101050.83
2023-04-02T09:35:58.580Z,101054.73
2023-04-02T09:38:33.169Z,101058.74
2023-04-02T09:41:07.440Z,101064.70
2023-04-02T09:43:38.791Z,101066.24
2023-04-02T09:46:14.002Z,101070.88
2023-04-02T09:49:01.434Z,101074.84
2023-04-02T09:51:36.653Z,101081.04
2023-04-02T09:54:15.562Z,101080.09
2023-04-02T09:57:04.672Z,101083.07
2023-04-02T09:59:33.626Z,101087.39
2023-04-02T10:02:06.073Z,101094.45
2023-04-02T10:04:38.752Z,101092.06
2023-04-02T10:07:07.786Z,101096.51
2023-04-02T10:09:38.527Z,101099.41
2023-04-02T10:12:13.677Z,101101.61
2023-04-02T10:14:46.978Z,101099.92
2023-04-02T10:17:21.701Z,101106.52
2023-04-02T10:19:56.178Z,101106.41
2023-04-02T10:22:28.344Z,101108.44
2023-04-02T10:24:58.925Z,101112.62
2023-04-02T10:27:37.779Z,101113.50
2023-04-02T10:30:19.350Z,101120.84
2023-04-02T10:32:58.567Z,101122.92
2023-04-02T10:35:49.100Z,101127.50
2023-04-02T10:38:31.249Z,101131.20
2023-04-02T10:41:19.967Z,101131.80
2023-04-02T10:44:17.177Z,101136.13
2023-04-02T10:47:16.491Z,101136.84
2023-04-02T10:50:11.545Z,101143.55
2023-04-02T10:52:49.398Z,101148.66
2023-04-02T10:55:23.914Z,101150.83
2023-04-02T10:57:57.323Z,101154.30
2023-04-02T11:00:34.630Z,101156.23
2023-04-02T11:03:14.148Z,101154.86
2023-04-02T11:05:56.972Z,101155.05
2023-04-02T11:08:39.067Z,101163.14
2023-04-02T11:11:15.462Z,101168.13
2023-04-02T11:13:53.533Z,101170.94
2023-04-02T11:16:23.907Z,101173.29
2023-04-02T11:19:15.034Z,101176.82
2023-04-02T11:21:59.671Z,101176.98
2023-04-02T11:24:38.804Z,101181.61
2023-04-02T11:27:23.721Z,101180.54
2023-04-02T11:30:18.191Z,101187.30
2023-04-02T11:32:49.943Z,101192.85
2023-04-02T11:35:31.418Z,101195.73
2023-04-02T11:38:06.399Z,101203.89
2023-04-02T11:40:49.499Z,101201.95
2023-04-02T11:43:33.577Z,101201.67
2023-04-02T11:46:24.546Z,101209.95
2023-04-02T11:48:55.217Z,101211.91
2023-04-02T11:51:30.869Z,101213.02
2023-04-02T11:53:59.834Z,101219.68
2023-04-02T11:56:35.396Z,101222.01
2023-04-02T11:59:25.854Z,101225.02
2023-04-02T12:02:08.313Z,101233.29
2023-04-02T12:05:10.389Z,101239.09
2023-04-02T12:08:22.794Z,101244.38
2023-04-02T12:11:02.653Z,101245.83
2023-04-02T12:13:40.850Z,101249.40
2023-04-02T12:16:14.101Z,101254.48
2023-04-02T12:18:54.043Z,101253.86
2023-04-02T12:21:26.356Z,101253.02
2023-04-02T12:23:58.708Z,101249.63
2023-04-02T12:26:30.361Z,101255.75
2023-04-02T12:29:36.394Z,101259.66
2023-04-02T12:32:33.686Z,101258.21
2023-04-02T12:35:04.817Z,101255.88
2023-04-02T12:37:34.136Z,101257.47
2023-04-02T12:40:17.126Z,101257.34
2023-04-02T12:42:46.201Z,101255.89
2023-04-02T12:45:30.914Z,101259.19
2023-04-02T12:48:05.455Z,101253.55
2023-04-02T12:50:35.153Z,101256.38
2023-04-02T12:53:04.462Z,101262.94
2023-04-02T12:55:33.609Z,101269.41
2023-04-02T12:58:02.528Z,101273.17
2023-04-02T13:00:32.772Z,101279.77
2023-04-02T13:03:18.102Z,101277.61
2023-04-02T13:05:56.330Z,101283.42
2023-04-02T13:08:30.795Z,101285.97
2023-04-02T13:11:05.081Z,101288.17
2023-04-02T13:13:39.662Z,101287.99
2023-04-02T13:16:17.507Z,101294.99
2023-04-02T13:18:48.809Z,101296.15
2023-04-02T13:21:21.310Z,101296.35
2023-04-02T13:23:50.493Z,101295.87
2023-04-02T13:26:28.295Z,101297.17
2023-04-02T13:28:57.188Z,101299.95
2023-04-02T13:31:26.423Z,101303.64
2023-04-02T13:33:55.323Z,101310.81
2023-04-02T13:36:24.399Z,101309.20
2023-04-02T13:38:53.467Z,101311.96
2023-04-02T13:41:24.288Z,101313.94
2023-04-02T13:43:55.217Z,101319.79
2023-04-02T13:46:28.652Z,101319.80
2023-04-02T13:48:58.495Z,101319.68
2023-04-02T13:51:39.493Z,101325.92
2023-04-02T13:54:18.914Z,101330.62
2023-04-02T13:56:48.074Z,101327.15
2023-04-02T13:59:17.167Z,101334.31
2023-04-02T14:01:48.017Z,101337.36
2023-04-02T14:04:24.664Z,101341.20
2023-04-02T14:07:32.127Z,101341.67
2023-04-02T14:10:42.605Z,101343.91
2023-04-02T14:13:34.780Z,101343.67
2023-04-02T14:16:13.029Z,101346.02
2023-04-02T14:19:03.292Z,101348.88
2023-04-02T14:22:00.959Z,101348.70
2023-04-02T14:24:32.894Z,101352.98
2023-04-02T14:27:26.757Z,101358.66
2023-04-02T14:30:11.355Z,101360.02
2023-04-02T14:32:55.848Z,101359.46
2023-04-02T14:35:44.233Z,101361.84
2023-04-02T14:38:25.607Z,101364.27
2023-04-02T14:41:04.692Z,101366.48
2023-04-02T14:43:52.422Z,101370.32
2023-04-02T14:46:26.841Z,101372.18
2023-04-02T14:49:02.394Z,101373.36
2023-04-02T14:51:41.816Z,101377.60
2023-04-02T14:54:21.820Z,101373.74
2023-04-02T14:56:54.530Z,101369.50
2023-04-02T14:59:41.811Z,101373.25
2023-04-02T15:02:17.190Z,101375.15
2023-04-02T15:05:01.101Z,101378.41
2023-04-02T15:07:41.175Z,101380.89
2023-04-02T15:10:21.674Z,101383.27
2023-04-02T15:12:52.554Z,101384.65
2023-04-02T15:15:49.125Z,101385.92
2023-04-02T15:18:18.429Z,101388.02
2023-04-02T15:21:06.048Z,101387.66
2023-04-02T15:23:53.001Z,101390.67
2023-04-02T15:26:35.907Z,101398.23
2023-04-02T15:29:30.133Z,101399.45
2023-04-02T15:32:18.426Z,101404.34
2023-04-02T15:34:57.973Z,101411.48
2023-04-02T15:37:39.742Z,101413.94
2023-04-02T15:40:24.182Z,101417.34
2023-04-02T15:43:01.955Z,101422.72
2023-04-02T15:46:16.401Z,101423.57
2023-04-02T15:48:48.400Z,101427.75
2023-04-02T15:51:42.315Z,101434.72
2023-04-02T15:54:32.091Z,101438.36
2023-04-02T15:57:09.229Z,101443.32
2023-04-02T15:59:38.104Z,101446.90
2023-04-02T16:02:28.272Z,101452.90
2023-04-02T16:05:17.780Z,101455.75
2023-04-02T16:07:49.781Z,101459.02
2023-04-02T16:10:41.882Z,101464.35
2023-04-02T16:13:32.065Z,101466.63
2023-04-02T16:16:10.005Z,101470.69
2023-04-02T16:18:52.860Z,101470.33
2023-04-02T16:21:27.386Z,101478.52
2023-04-02T16:23:56.477Z,101480.11
2023-04-02T16:26:32.355Z,101478.54
2023-04-02T16:29:53.970Z,101489.83
2023-04-02T16:32:52.903Z,101494.41
2023-04-02T16:35:44.542Z,101495.66
2023-04-02T16:38:41.405Z,101497.23
2023-04-02T16:41:41.571Z,101504.89
2023-04-02T16:44:26.942Z,101508.20
2023-04-02T16:47:17.902Z,101514.08
2023-04-02T16:49:59.167Z,101516.55
2023-04-02T16:52:51.244Z,101522.87
2023-04-02T16:55:34.948Z,101526.72
2023-04-02T16:58:32.941Z,101532.68
2023-04-02T17:01:36.192Z,101537.54
2023-04-02T17:04:32.852Z,101542.77
2023-04-02T17:07:24.540Z,101548.11
2023-04-02T17:10:11.171Z,101549.93
2023-04-02T17:12:46.260Z,101554.00
2023-04-02T17:17:58.445Z,101558.81
2023-04-02T17:20:28.415Z,101561.84
2023-04-02T17:22:58.357Z,101568.84
2023-04-02T17:25:32.390Z,101573.03
2023-04-02T17:28:02.658Z,101578.58
2023-04-02T17:30:47.966Z,101587.89
2023-04-02T17:33:18.997Z,101594.67
2023-04-02T17:36:00.135Z,101601.99
2023-04-02T17:38:47.683Z,101603.81
2023-04-02T17:41:26.428Z,101609.80
2023-04-02T17:44:05.517Z,101617.89
2023-04-02T17:46:36.197Z,101622.95
2023-04-02T17:49:17.164Z,101628.25
2023-04-02T17:51:55.383Z,101633.56
2023-04-02T17:54:44.820Z,101638.78
2023-04-02T17:57:19.377Z,101644.88
2023-04-02T18:00:10.464Z,101651.56
2023-04-02T18:02:59.748Z,101655.94
2023-04-02T18:05:38.918Z,101663.93
2023-04-02T18:08:26.421Z,101668.27
2023-04-02T18:11:21.308Z,101678.48
2023-04-02T18:13:59.857Z,101683.11
2023-04-02T18:16:43.982Z,101688.80
2023-04-02T18:19:38.891Z,101697.29
2023-04-02T18:22:10.688Z,101699.06
2023-04-02T18:25:01.350Z,101701.95
2023-04-02T18:27:59.748Z,101704.36
2023-04-02T18:30:54.471Z,101711.92
2023-04-02T18:33:38.795Z,101720.38
2023-04-02T18:36:23.045Z,101726.61
2023-04-02T18:39:02.264Z,101729.29
2023-04-02T18:41:46.323Z,101736.55
2023-04-02T18:44:36.686Z,101740.73
2023-04-02T18:47:37.749Z,101744.13
2023-04-02T18:50:29.651Z,101750.16
2023-04-02T18:52:58.722Z,101749.26
2023-04-02T18:55:30.599Z,101751.13
2023-04-02T18:58:11.891Z,101755.73
2023-04-02T19:00:44.340Z,101755.34
2023-04-02T19:03:21.560Z,101754.04
2023-04-02T19:06:04.265Z,101756.77
2023-04-02T19:08:51.136Z,101756.02
2023-04-02T19:11:31.975Z,101762.30
2023-04-02T19:14:02.782Z,101761.30
2023-04-02T19:16:53.064Z,101762.92
2023-04-02T19:19:52.569Z,101765.53
2023-04-02T19:22:24.158Z,101769.61
2023-04-02T19:25:29.716Z,101770.77
2023-04-02T19:28:12.319Z,101775.35
2023-04-02T19:31:00.497Z,101779.13
2023-04-02T19:33:51.444Z,101782.55
2023-04-02T19:36:55.384Z,101783.59
2023-04-02T19:39:46.850Z,101786.86
2023-04-02T19:42:40.633Z,101786.87
2023-04-02T19:45:39.816Z,101784.77
2023-04-02T19:48:21.941Z,101784.11
2023-04-02T19:50:50.958Z,101790.67
2023-04-02T19:53:20.117Z,101791.41
2023-04-02T19:55:49.042Z,101796.38
2023-04-02T19:58:28.428Z,101792.96
2023-04-02T20:00:57.859Z,101804.21
2023-04-02T20:03:27.073Z,101809.33
2023-04-02T20:05:58.547Z,101809.86
2023-04-02T20:08:28.202Z,101812.15
2023-04-02T20:11:00.975Z,101812.52
2023-04-02T20:13:29.976Z,101813.34
2023-04-02T20:16:01.624Z,101820.10
2023-04-02T20:18:31.507Z,101821.80
2023-04-02T20:21:05.653Z,101824.32
2023-04-02T20:23:35.420Z,101828.61
2023-04-02T20:26:05.824Z,101834.27
2023-04-02T20:28:34.769Z,101836.05
2023-04-02T20:31:12.723Z,101841.16
2023-04-02T20:33:43.236Z,101848.30
2023-04-02T20:36:14.992Z,101851.31
2023-04-02T20:38:45.794Z,101852.70
2023-04-02T20:41:17.541Z,101858.25
2023-04-02T20:43:46.537Z,101860.23
2023-04-02T20:46:16.502Z,101864.64
2023-04-02T20:48:45.764Z,101866.67
2023-04-02T20:51:15.742Z,101875.23
2023-04-02T20:53:44.711Z,101878.52
2023-04-02T20:56:15.919Z,101880.19
2023-04-02T20:58:45.329Z,101885.55
2023-04-02T21:01:22.274Z,101884.49
2023-04-02T21:03:58.912Z,101886.96
2023-04-02T21:06:33.350Z,101887.14
2023-04-02T21:09:06.993Z,101889.13
2023-04-02T21:11:37.800Z,101894.55
2023-04-02T21:14:07.167Z,101895.17
2023-04-02T21:16:36.433Z,101897.52
2023-04-02T21:19:09.302Z,101903.69
2023-04-02T21:21:40.537Z,101904.31
2023-04-02T21:24:09.965Z,101908.62
2023-04-02T21:26:42.033Z,101913.33
2023-04-02T21:29:12.367Z,101914.95
2023-04-02T21:31:42.214Z,101918.75
2023-04-02T21:34:16.149Z,101921.09
2023-04-02T21:36:47.235Z,101920.20
2023-04-02T21:39:19.517Z,101924.88
2023-04-02T21:41:51.094Z,101927.36
2023-04-02T21:44:22.352Z,101923.05
2023-04-02T21:46:53.610Z,101924.67
2023-04-02T21:49:24.017Z,101930.23
2023-04-02T21:51:52.982Z,101935.51
2023-04-02T21:54:22.277Z,101935.00
2023-04-02T21:56:51.584Z,101933.34
2023-04-02T21:59:20.735Z,101941.92
2023-04-02T22:01:51.337Z,101946.06
2023-04-02T22:04:23.173Z,101942.85
2023-04-02T22:06:53.426Z,101945.02
2023-04-02T22:09:25.852Z,101948.96
2023-04-02T22:11:59.425Z,101952.65
2023-04-02T22:14:29.736Z,101944.44
2023-04-02T22:16:59.003Z,101956.45
2023-04-02T22:19:28.145Z,101956.83
2023-04-02T22:21:57.077Z,101958.94
2023-04-02T22:24:26.144Z,101962.50
2023-04-02T22:26:55.582Z,101967.00
2023-04-02T22:29:24.462Z,101962.63
2023-04-02T22:31:53.448Z,101967.14
2023-04-02T22:34:22.388Z,101964.11
2023-04-02T22:36:53.060Z,101966.58
2023-04-02T22:39:21.932Z,101969.14
2023-04-02T22:41:50.788Z,101971.91
2023-04-02T22:44:19.674Z,101975.61
2023-04-02T22:46:48.748Z,101979.29
2023-04-02T22:49:19.480Z,101985.77
2023-04-02T22:51:48.718Z,101985.27
2023-04-02T22:54:17.698Z,101989.27
2023-04-02T22:56:46.644Z,101991.00
2023-04-02T22:59:16.240Z,101989.71
2023-04-02T23:01:45.295Z,101997.54
2023-04-02T23:04:14.370Z,101999.68
2023-04-02T23:06:43.438Z,101994.54
2023-04-02T23:09:12.443Z,101999.65
2023-04-02T23:11:41.506Z,102001.45
2023-04-02T23:14:10.617Z,102001.90
2023-04-02T23:16:39.547Z,102006.34
2023-04-02T23:19:08.571Z,102003.81
2023-04-02T23:21:37.468Z,102004.46
2023-04-02T23:24:06.480Z,102003.70
2023-04-02T23:26:35.687Z,102003.48
2023-04-02T23:29:06.413Z,102002.98
2023-04-02T23:31:35.618Z,102002.19
2023-04-02T23:34:04.612Z,101998.50
2023-04-02T23:36:35.513Z,102003.26
2023-04-02T23:39:09.539Z,102002.17
2023-04-02T23:41:40.958Z,102000.59
2023-04-02T23:44:10.373Z,102002.48
2023-04-02T23:46:39.306Z,102002.84
2023-04-02T23:49:11.524Z,102000.23
2023-04-02T23:51:41.037Z,101998.59
2023-04-02T23:54:12.383Z,102001.47
2023-04-02T23:56:42.166Z,101997.33
2023-04-02T23:59:11.232Z,101998.38
